Time;durP1;ratioP1;P1;durP2;ratioP2;P2;SDS_P1;SDS_P2;PMS_P1;PMS_P2;Temp;Humidity;BMP_temperature;BMP_pressure;BME280_temperature;BME280_humidity;BME280_pressure;Samples;Min_cycle;Max_cycle;Signal;HPM_P1;HPM_P2
2022/06/10 00:01:00;;;;;;;5.05;3.00;;;;;;;19.58;56.92;99223.87;1770146;80;21039;-69
2022/06/10 00:03:29;;;;;;;4.70;2.80;;;;;;;19.55;58.56;99218.46;1765628;80;21082;-68
2022/06/10 00:06:00;;;;;;;7.58;2.52;;;;;;;19.56;58.23;99220.08;1767419;80;21063;-68
2022/06/10 00:08:34;;;;;;;3.55;2.33;;;;;;;19.56;58.19;99218.69;1766781;80;21515;-67
2022/06/10 00:11:03;;;;;;;5.22;2.42;;;;;;;19.58;59.55;99219.69;1767664;80;21078;-67
2022/06/10 00:13:34;;;;;;;8.55;2.72;;;;;;;19.57;59.24;99221.67;1747199;80;21230;-67
2022/06/10 00:16:03;;;;;;;6.03;2.62;;;;;;;19.57;59.09;99227.84;1767941;80;21535;-69
2022/06/10 00:18:32;;;;;;;4.33;2.72;;;;;;;19.55;58.12;99229.63;1768323;80;21654;-68
2022/06/10 00:21:02;;;;;;;3.87;2.72;;;;;;;19.56;58.59;99229.05;1769767;80;21547;-66
2022/06/10 00:23:32;;;;;;;3.65;2.85;;;;;;;19.55;59.29;99224.05;1766754;80;21500;-67
2022/06/10 00:25:59;;;;;;;2.52;2.30;;;;;;;19.54;58.85;99230.03;1763151;80;21084;-67
2022/06/10 00:28:26;;;;;;;6.30;3.05;;;;;;;19.54;59.53;99234.22;1764680;80;21039;-67
2022/06/10 00:30:54;;;;;;;6.42;3.58;;;;;;;19.52;58.58;99231.00;1762907;80;21119;-68
2022/06/10 00:33:22;;;;;;;4.67;2.20;;;;;;;19.51;57.98;99226.62;1757322;80;21043;-69
2022/06/10 00:35:50;;;;;;;2.60;2.15;;;;;;;19.52;58.94;99228.20;1756602;80;21147;-67
2022/06/10 00:38:18;;;;;;;7.72;2.80;;;;;;;19.50;60.65;99228.59;1758645;80;21032;-69
2022/06/10 00:40:54;;;;;;;3.95;2.60;;;;;;;19.48;60.25;99224.61;1762156;80;21031;-66
2022/06/10 00:43:25;;;;;;;5.22;2.40;;;;;;;19.45;60.17;99226.17;1761273;80;21702;-67
2022/06/10 00:46:20;;;;;;;4.33;2.22;;;;;;;19.44;60.80;99221.78;1765217;80;21469;-67
2022/06/10 00:48:56;;;;;;;8.18;3.02;;;;;;;19.42;61.32;99231.95;1762293;80;21004;-68
2022/06/10 00:51:43;;;;;;;3.35;2.17;;;;;;;19.41;61.30;99230.36;1765465;80;21021;-66
2022/06/10 00:54:30;;;;;;;4.92;2.00;;;;;;;19.39;60.90;99226.33;1762322;80;20977;-68
2022/06/10 00:57:07;;;;;;;2.52;1.98;;;;;;;19.37;60.29;99230.10;1764808;80;21122;-67
2022/06/10 00:59:39;;;;;;;6.35;2.27;;;;;;;19.36;59.89;99225.13;1766709;80;21097;-69
2022/06/10 01:02:11;;;;;;;3.15;2.30;;;;;;;19.33;60.34;99227.28;1754108;80;21051;-68
2022/06/10 01:04:40;;;;;;;5.33;2.67;;;;;;;19.32;60.92;99227.08;1762273;80;22162;-66
2022/06/10 01:07:05;;;;;;;4.72;2.42;;;;;;;19.30;59.95;99230.84;1760017;80;21027;-67
2022/06/10 01:09:33;;;;;;;4.28;2.60;;;;;;;19.27;60.02;99234.42;1761493;80;21516;-68
2022/06/10 01:12:56;;;;;;;4.12;2.45;;;;;;;19.24;59.98;99229.03;1765662;80;21044;-68
2022/06/10 01:15:39;;;;;;;4.85;3.10;;;;;;;19.21;59.26;99230.59;1758545;80;21492;-66
2022/06/10 01:18:37;;;;;;;6.67;2.47;;;;;;;19.18;58.75;99236.95;1756680;80;21591;-68
2022/06/10 01:21:37;;;;;;;5.05;3.12;;;;;;;19.15;59.05;99239.13;1758507;80;21040;-67
2022/06/10 01:24:30;;;;;;;5.45;2.75;;;;;;;19.12;61.22;99239.90;1762420;80;20973;-68
2022/06/10 01:27:53;;;;;;;3.65;2.70;;;;;;;19.07;61.21;99240.22;1763565;80;21036;-68
2022/06/10 01:30:44;;;;;;;4.28;2.60;;;;;;;18.98;61.24;99241.93;1750753;81;21974;-68
2022/06/10 01:33:38;;;;;;;5.97;2.98;;;;;;;18.93;61.59;99244.48;1761139;81;21110;-66
2022/06/10 01:36:32;;;;;;;4.20;3.08;;;;;;;18.90;61.36;99249.41;1755935;81;20985;-69
2022/06/10 01:39:10;;;;;;;8.25;3.27;;;;;;;18.87;61.09;99250.19;1758183;81;21023;-67
2022/06/10 01:42:03;;;;;;;5.08;2.58;;;;;;;18.84;60.99;99249.56;1758452;80;21031;-68
2022/06/10 01:45:09;;;;;;;8.08;2.83;;;;;;;18.80;61.16;99249.52;1759392;80;21049;-67
2022/06/10 01:47:57;;;;;;;6.78;2.85;;;;;;;18.79;61.55;99245.14;1751363;81;21044;-69
2022/06/10 01:50:53;;;;;;;7.08;2.92;;;;;;;18.76;62.03;99248.70;1756060;81;21555;-68
2022/06/10 01:53:31;;;;;;;6.85;3.42;;;;;;;18.72;62.58;99245.87;1763153;81;20993;-69
2022/06/10 01:56:15;;;;;;;6.28;2.87;;;;;;;18.67;62.29;99242.03;1762503;81;21020;-69
2022/06/10 01:58:49;;;;;;;4.33;2.87;;;;;;;18.64;62.71;99245.59;1758078;79;20989;-68
2022/06/10 02:01:19;;;;;;;5.10;2.95;;;;;;;18.59;63.37;99236.98;1757795;81;21024;-66
2022/06/10 02:04:01;;;;;;;4.05;2.75;;;;;;;18.58;63.46;99239.53;1756922;81;21001;-68
2022/06/10 02:06:38;;;;;;;6.17;2.37;;;;;;;18.59;63.59;99243.14;1757445;81;21572;-68
2022/06/10 02:09:09;;;;;;;5.10;2.87;;;;;;;18.57;63.93;99245.50;1731667;81;21044;-67
2022/06/10 02:11:39;;;;;;;4.95;2.45;;;;;;;18.55;63.59;99249.26;1761965;80;21160;-67
2022/06/10 02:14:15;;;;;;;5.12;2.90;;;;;;;18.54;63.88;99247.66;1723400;80;21075;-67
2022/06/10 02:16:47;;;;;;;6.00;3.90;;;;;;;18.54;63.83;99247.66;1760867;81;21075;-68
2022/06/10 02:19:37;;;;;;;4.17;2.77;;;;;;;18.54;63.66;99251.84;1756279;81;21028;-68
2022/06/10 02:22:18;;;;;;;6.12;2.80;;;;;;;18.52;63.86;99254.20;1740687;81;21591;-68
2022/06/10 02:24:54;;;;;;;5.20;2.92;;;;;;;18.47;64.14;99260.35;1756495;80;21011;-67
2022/06/10 02:27:30;;;;;;;6.30;2.47;;;;;;;18.44;64.33;99259.70;1751151;81;21056;-67
2022/06/10 02:30:14;;;;;;;10.05;3.27;;;;;;;18.43;64.51;99265.66;1748974;81;21063;-68
2022/06/10 02:32:41;;;;;;;6.33;3.65;;;;;;;18.43;64.29;99264.27;1747196;81;20994;-67
2022/06/10 02:35:08;;;;;;;8.88;3.70;;;;;;;18.46;63.77;99269.89;1748481;81;20993;-66
2022/06/10 02:38:12;;;;;;;8.03;3.40;;;;;;;18.48;63.58;99265.32;1749344;81;21109;-67
2022/06/10 02:40:59;;;;;;;7.75;2.72;;;;;;;18.48;63.81;99263.34;1750224;81;21048;-68
2022/06/10 02:43:46;;;;;;;;;;;;;;;18.52;63.60;99264.78;1750344;81;20977;-67
2022/06/10 02:46:27;;;;;;;5.30;2.20;;;;;;;18.57;63.19;99266.42;1742251;81;20456;-67
2022/06/10 02:49:13;;;;;;;13.72;3.40;;;;;;;18.61;62.98;99268.67;1748084;81;21482;-68
2022/06/10 02:51:42;;;;;;;4.33;2.70;;;;;;;18.67;63.30;99270.52;1739486;81;21272;-65
2022/06/10 02:54:15;;;;;;;5.55;2.70;;;;;;;18.73;63.41;99275.98;1733693;81;21015;-65
2022/06/10 02:56:45;;;;;;;5.70;2.55;;;;;;;18.80;63.05;99269.67;1747160;80;22278;-67
2022/06/10 03:02:17;;;;;;;6.37;2.72;;;;;;;18.92;62.31;99276.36;1721261;81;21595;-68
2022/06/10 03:05:01;;;;;;;12.37;2.98;;;;;;;19.01;62.13;99273.84;1750550;81;21153;-68
2022/06/10 03:08:09;;;;;;;28.73;4.45;;;;;;;19.06;62.52;99274.30;1751114;81;20977;-68
2022/06/10 03:10:57;;;;;;;18.37;3.85;;;;;;;19.12;62.57;99274.80;1753823;81;21079;-68
2022/06/10 03:13:55;;;;;;;6.80;3.15;;;;;;;19.11;62.52;99280.16;1752833;80;21036;-68
2022/06/10 03:17:08;;;;;;;15.68;3.33;;;;;;;19.08;63.51;99272.52;1743484;81;21517;-70
2022/06/10 03:19:51;;;;;;;19.07;4.87;;;;;;;19.06;63.81;99271.52;1740747;81;21478;-67
2022/06/10 03:22:56;;;;;;;17.35;3.77;;;;;;;19.13;64.44;99271.39;1744215;81;21016;-69
2022/06/10 03:25:36;;;;;;;35.10;5.50;;;;;;;19.19;64.89;99279.64;1749483;80;21454;-67
2022/06/10 03:28:26;;;;;;;27.62;5.10;;;;;;;19.25;65.18;99273.91;1745653;80;21107;-67
2022/06/10 03:31:16;;;;;;;43.13;5.85;;;;;;;19.26;65.35;99275.50;1750343;80;21138;-66
2022/06/10 03:33:53;;;;;;;23.00;5.08;;;;;;;19.31;65.84;99279.33;1747287;81;21565;-66
2022/06/10 03:36:23;;;;;;;7.08;3.42;;;;;;;19.39;65.83;99283.00;1747714;81;21040;-68
2022/06/10 03:38:51;;;;;;;7.65;3.50;;;;;;;19.45;65.63;99278.66;1741636;81;21058;-68
2022/06/10 03:41:27;;;;;;;5.37;2.83;;;;;;;19.55;66.33;99277.75;1751846;81;21008;-70
2022/06/10 03:43:55;;;;;;;7.85;2.92;;;;;;;19.59;66.34;99271.57;1747446;81;21024;-68
2022/06/10 03:46:24;;;;;;;10.78;3.42;;;;;;;19.64;66.17;99272.61;1748990;81;21255;-69
2022/06/10 03:48:52;;;;;;;5.90;2.95;;;;;;;19.74;65.64;99275.88;1699879;81;21088;-69
2022/06/10 03:51:21;;;;;;;6.28;3.45;;;;;;;19.83;65.02;99270.73;1748381;81;21044;-69
2022/06/10 03:53:48;;;;;;;8.83;3.05;;;;;;;19.91;64.15;99273.77;1746256;81;21052;-67
2022/06/10 03:56:25;;;;;;;11.85;3.83;;;;;;;20.02;64.62;99271.64;1745865;80;21060;-68
2022/06/10 03:58:53;;;;;;;3.87;2.62;;;;;;;20.14;64.20;99277.53;1750473;81;22145;-67
2022/06/10 04:01:20;;;;;;;5.55;3.10;;;;;;;20.25;63.53;99274.80;1754029;81;21068;-69
2022/06/10 04:03:47;;;;;;;10.25;3.30;;;;;;;20.34;63.34;99269.63;1739103;81;21689;-66
2022/06/10 04:06:17;;;;;;;6.25;2.92;;;;;;;20.42;62.48;99279.64;1748998;81;21267;-68
2022/06/10 04:08:45;;;;;;;5.12;3.10;;;;;;;20.52;62.40;99276.67;1752238;80;21014;-69
2022/06/10 04:11:16;;;;;;;5.83;3.12;;;;;;;20.60;61.89;99280.31;1752938;81;22201;-68
2022/06/10 04:13:44;;;;;;;11.80;3.27;;;;;;;20.69;61.38;99284.15;1750510;81;21057;-68
2022/06/10 04:16:14;;;;;;;6.78;3.00;;;;;;;20.76;61.22;99282.75;1745650;81;20996;-67
2022/06/10 04:18:42;;;;;;;10.80;3.83;;;;;;;20.83;62.00;99287.56;1745505;80;20992;-69
2022/06/10 04:21:12;;;;;;;10.82;3.42;;;;;;;20.91;61.70;99291.98;1744443;81;21075;-68
2022/06/10 04:23:38;;;;;;;5.80;2.95;;;;;;;20.99;61.43;99287.83;1750033;80;21109;-68
2022/06/10 04:26:04;;;;;;;13.58;3.58;;;;;;;21.06;61.17;99294.84;1768259;80;20968;-67
2022/06/10 04:28:31;;;;;;;5.80;3.10;;;;;;;21.12;60.99;99291.84;1767010;80;21036;-68
2022/06/10 04:30:57;;;;;;;6.17;3.50;;;;;;;21.20;60.81;99302.47;1750092;80;21070;-70
2022/06/10 04:33:24;;;;;;;7.70;3.10;;;;;;;21.26;60.15;99307.87;1771448;80;21591;-68
2022/06/10 04:35:53;;;;;;;7.53;2.95;;;;;;;21.32;59.43;99295.68;1768523;80;21734;-67
2022/06/10 04:38:21;;;;;;;6.53;3.27;;;;;;;21.38;59.05;99302.48;1763472;79;21070;-69
2022/06/10 04:40:48;;;;;;;5.20;3.40;;;;;;;21.47;58.83;99309.69;1768146;80;21117;-68
2022/06/10 04:43:16;;;;;;;9.53;3.22;;;;;;;21.54;58.97;99309.69;1765498;80;21495;-71
2022/06/10 04:45:48;;;;;;;6.97;3.40;;;;;;;21.61;58.95;99311.69;1769973;80;21603;-69
2022/06/10 04:48:17;;;;;;;5.97;3.62;;;;;;;21.68;59.26;99309.48;1768971;80;21004;-68
2022/06/10 04:50:45;;;;;;;7.72;3.00;;;;;;;21.76;59.18;99323.69;1769465;80;21690;-68
2022/06/10 04:53:14;;;;;;;9.03;3.20;;;;;;;21.81;59.07;99323.31;1770703;79;21011;-67
2022/06/10 04:55:45;;;;;;;11.20;3.45;;;;;;;21.89;58.96;99322.69;1771385;80;21047;-69
2022/06/10 04:58:12;;;;;;;5.50;3.50;;;;;;;21.95;58.86;99330.10;1770133;80;21532;-68
2022/06/10 05:00:42;;;;;;;6.90;2.62;;;;;;;22.01;58.69;99324.27;1767674;80;21903;-70
2022/06/10 05:03:10;;;;;;;10.90;3.33;;;;;;;22.09;58.39;99332.09;1770799;80;20996;-68
2022/06/10 05:05:39;;;;;;;12.90;3.52;;;;;;;22.16;58.33;99329.24;1771158;80;21019;-69
2022/06/10 05:08:08;;;;;;;8.20;3.72;;;;;;;22.23;58.03;99329.83;1771941;80;20980;-68
2022/06/10 05:10:35;;;;;;;7.62;4.30;;;;;;;22.30;57.58;99330.41;1771972;80;21043;-70
2022/06/10 05:13:03;;;;;;;7.20;4.03;;;;;;;22.37;57.51;99332.61;1770322;80;21023;-69
2022/06/10 05:15:30;;;;;;;7.90;4.40;;;;;;;22.45;57.28;99333.99;1773591;80;21028;-69
2022/06/10 05:17:58;;;;;;;9.13;3.95;;;;;;;22.52;57.07;99336.75;1772785;79;21016;-69
2022/06/10 05:20:40;;;;;;;5.87;4.20;;;;;;;22.59;56.72;99338.73;1770378;80;21048;-68
2022/06/10 05:23:09;;;;;;;8.88;4.10;;;;;;;22.65;56.63;99336.34;1773949;80;21007;-69
2022/06/10 05:25:37;;;;;;;17.92;4.95;;;;;;;22.72;56.98;99337.72;1759327;80;21338;-67
2022/06/10 05:28:05;;;;;;;15.20;5.22;;;;;;;22.80;56.61;99347.70;1754061;80;21098;-69
2022/06/10 05:30:35;;;;;;;12.47;4.92;;;;;;;22.89;56.58;99345.05;1750978;80;21036;-67
2022/06/10 05:33:04;;;;;;;11.12;5.40;;;;;;;22.96;56.38;99351.42;1754220;81;21041;-68
2022/06/10 05:35:30;;;;;;;7.20;4.70;;;;;;;23.05;56.20;99355.19;1744752;80;21004;-68
2022/06/10 05:37:57;;;;;;;11.68;4.20;;;;;;;23.14;56.05;99357.55;1747159;81;21092;-68
2022/06/10 05:40:25;;;;;;;10.53;4.58;;;;;;;23.22;55.44;99348.45;1745614;81;21086;-67
2022/06/10 05:42:53;;;;;;;9.10;4.62;;;;;;;23.30;55.36;99347.81;1744313;81;21127;-67
2022/06/10 05:45:23;;;;;;;9.40;4.35;;;;;;;23.36;54.39;99354.59;1746253;81;21048;-67
2022/06/10 05:47:58;;;;;;;11.75;4.72;;;;;;;23.43;54.78;99356.58;1727569;82;21540;-68
2022/06/10 05:50:38;;;;;;;9.00;4.15;;;;;;;23.51;54.26;99360.16;1742382;81;21286;-69
2022/06/10 05:53:08;;;;;;;11.18;4.70;;;;;;;23.61;54.00;99364.87;1743622;81;21042;-70
2022/06/10 05:55:35;;;;;;;13.10;5.60;;;;;;;23.70;54.07;99368.02;1742057;80;21004;-67
2022/06/10 05:58:03;;;;;;;9.73;4.97;;;;;;;23.78;53.69;99364.52;1751447;80;21118;-68
2022/06/10 06:00:34;;;;;;;9.10;4.70;;;;;;;23.88;52.92;99371.89;1744880;80;21083;-68
2022/06/10 06:03:03;;;;;;;10.13;4.40;;;;;;;23.94;52.25;99369.63;1743337;81;21094;-69
2022/06/10 06:05:32;;;;;;;11.80;4.78;;;;;;;24.01;51.56;99370.76;1743606;81;21053;-69
2022/06/10 06:08:02;;;;;;;7.25;4.67;;;;;;;24.06;51.47;99369.70;1744936;81;21051;-69
2022/06/10 06:10:34;;;;;;;14.63;4.90;;;;;;;24.15;51.55;99371.23;1743376;81;21068;-68
2022/06/10 06:13:02;;;;;;;6.53;4.20;;;;;;;24.23;51.33;99377.00;1743232;80;21003;-70
2022/06/10 06:15:32;;;;;;;18.35;5.20;;;;;;;24.30;51.61;99376.94;1743576;80;21520;-67
2022/06/10 06:18:00;;;;;;;11.85;4.35;;;;;;;24.38;51.40;99378.28;1741849;80;21064;-68
2022/06/10 06:20:27;;;;;;;13.72;4.55;;;;;;;24.45;50.45;99378.80;1741393;81;21044;-68
2022/06/10 06:22:55;;;;;;;10.15;4.60;;;;;;;24.50;50.04;99373.49;1743729;81;21036;-72
2022/06/10 06:25:23;;;;;;;9.25;4.55;;;;;;;24.59;49.91;99377.81;1741916;80;21497;-66
2022/06/10 06:27:52;;;;;;;14.15;4.70;;;;;;;24.64;49.48;99371.72;1761561;80;21945;-68
2022/06/10 06:30:30;;;;;;;14.50;4.37;;;;;;;24.73;49.59;99372.62;1732627;80;21054;-67
2022/06/10 06:32:55;;;;;;;9.88;4.30;;;;;;;24.82;50.23;99375.74;1754290;80;21011;-68
2022/06/10 06:35:22;;;;;;;9.30;4.30;;;;;;;24.92;50.89;99380.45;1760107;80;21120;-66
2022/06/10 06:37:51;;;;;;;13.88;4.70;;;;;;;25.01;49.97;99384.16;1763580;80;21059;-67
2022/06/10 06:40:18;;;;;;;9.65;4.78;;;;;;;25.07;49.54;99380.87;1761717;80;21213;-67
2022/06/10 06:42:48;;;;;;;11.70;4.90;;;;;;;25.14;49.57;99385.00;1757322;80;21043;-67
2022/06/10 06:45:16;;;;;;;10.50;4.80;;;;;;;25.20;48.92;99392.38;1758029;80;21010;-68
2022/06/10 06:47:51;;;;;;;16.67;5.03;;;;;;;25.26;48.49;99385.84;1757259;80;21039;-66
2022/06/10 06:50:24;;;;;;;14.38;5.83;;;;;;;25.35;49.20;99392.97;1761555;80;21069;-67
2022/06/10 06:53:08;;;;;;;;;;;;;;;;;;;;;
2022/06/10 06:55:23;;;;;;;10.80;5.87;;;;;;;25.54;50.27;99405.55;1753700;80;21002;-67
2022/06/10 06:57:50;;;;;;;13.70;6.15;;;;;;;25.63;50.80;99409.25;1760468;79;21067;-67
2022/06/10 07:00:18;;;;;;;14.18;5.55;;;;;;;25.70;50.07;99406.35;1755302;80;21049;-66
2022/06/10 07:02:44;;;;;;;30.45;7.33;;;;;;;25.76;48.96;99411.68;1767873;80;21040;-68
2022/06/10 07:05:12;;;;;;;12.35;5.97;;;;;;;25.83;48.39;99403.71;1764919;80;21300;-67
2022/06/10 07:07:41;;;;;;;16.52;5.87;;;;;;;25.92;48.14;99404.58;1761239;80;21035;-65
2022/06/10 07:10:13;;;;;;;11.00;5.45;;;;;;;25.97;48.62;99408.33;1759793;80;21561;-66
2022/06/10 07:12:41;;;;;;;13.93;6.25;;;;;;;25.96;48.64;99399.69;1766789;80;21086;-67
2022/06/10 07:15:10;;;;;;;13.58;6.67;;;;;;;25.94;48.73;99397.91;1763782;80;21110;-68
2022/06/10 07:17:41;;;;;;;13.20;5.80;;;;;;;25.92;47.56;99408.81;1762419;80;21254;-68
2022/06/10 07:20:18;;;;;;;11.80;6.60;;;;;;;25.91;46.33;99405.82;1763232;80;20996;-68
2022/06/10 07:22:50;;;;;;;26.90;7.30;;;;;;;25.96;46.00;99401.70;1752594;80;21099;-69
2022/06/10 07:25:18;;;;;;;12.35;6.58;;;;;;;26.03;45.52;99405.81;1763236;80;21559;-67
2022/06/10 07:27:48;;;;;;;12.15;5.90;;;;;;;26.11;44.86;99407.89;1760929;80;20985;-68
2022/06/10 07:30:17;;;;;;;15.23;5.87;;;;;;;26.19;44.46;99407.94;1755011;81;21541;-68
2022/06/10 07:32:45;;;;;;;12.70;6.87;;;;;;;26.30;44.34;99409.77;1750791;80;21484;-68
2022/06/10 07:35:13;;;;;;;12.75;6.17;;;;;;;26.36;44.81;99410.28;1751526;80;20996;-69
2022/06/10 07:37:46;;;;;;;16.57;7.45;;;;;;;26.46;44.95;99410.52;1751619;81;21087;-68
2022/06/10 07:43:02;;;;;;;14.10;6.80;;;;;;;26.66;43.75;99407.70;1748460;80;21501;-68
2022/06/10 07:45:29;;;;;;;9.18;6.87;;;;;;;26.75;43.61;99402.86;1748075;80;21012;-68
2022/06/10 07:47:57;;;;;;;13.38;6.17;;;;;;;26.83;43.45;99409.19;1754932;81;21382;-67
2022/06/10 07:50:27;;;;;;;11.22;5.72;;;;;;;26.90;42.77;99412.47;1750755;81;21533;-67
2022/06/10 07:52:54;;;;;;;10.65;5.72;;;;;;;26.97;42.09;99408.87;1751579;81;21092;-67
2022/06/10 07:55:25;;;;;;;25.97;6.90;;;;;;;27.06;40.33;99412.55;1748014;81;21096;-67
2022/06/10 07:57:52;;;;;;;18.30;6.58;;;;;;;27.17;39.02;99417.17;1746552;81;21001;-68
2022/06/10 08:00:25;;;;;;;12.80;6.00;;;;;;;27.27;39.53;99428.06;1731794;81;21020;-68
2022/06/10 08:02:51;;;;;;;19.48;7.65;;;;;;;27.35;39.80;99418.17;1752399;80;21021;-69
2022/06/10 08:05:18;;;;;;;11.30;6.80;;;;;;;27.42;38.57;99415.80;1749535;80;21576;-68
2022/06/10 08:07:46;;;;;;;13.08;7.58;;;;;;;27.49;39.42;99424.13;1753454;81;21767;-68
2022/06/10 08:10:24;;;;;;;20.25;8.33;;;;;;;27.57;38.81;99417.67;1746882;81;21601;-67
2022/06/10 08:12:53;;;;;;;16.85;8.03;;;;;;;27.64;38.29;99416.09;1752381;81;21017;-68
2022/06/10 08:15:20;;;;;;;27.52;8.73;;;;;;;27.71;38.79;99412.33;1747756;81;20989;-68
2022/06/10 08:17:50;;;;;;;22.05;10.43;;;;;;;27.80;39.02;99417.38;1753217;81;21110;-69
2022/06/10 08:23:09;;;;;;;19.87;9.58;;;;;;;27.94;36.08;99414.16;1738765;81;21068;-69
2022/06/10 08:25:40;;;;;;;19.27;9.88;;;;;;;28.01;35.54;99410.36;1740874;81;21059;-70
2022/06/10 08:28:10;;;;;;;22.60;9.98;;;;;;;28.09;36.54;99418.06;1743334;81;21552;-69
2022/06/10 08:30:40;;;;;;;17.20;9.38;;;;;;;28.18;35.41;99415.38;1742526;81;21612;-66
2022/06/10 08:33:08;;;;;;;16.35;10.60;;;;;;;28.28;36.52;99410.69;1740201;80;21079;-68
2022/06/10 08:35:36;;;;;;;15.38;9.75;;;;;;;28.34;35.63;99415.20;1741775;81;21088;-67
2022/06/10 08:38:04;;;;;;;15.75;8.10;;;;;;;28.39;34.92;99417.49;1740913;81;21040;-70
2022/06/10 08:41:14;;;;;;;18.02;9.45;;;;;;;28.47;34.94;99422.36;1740621;81;21009;-68
2022/06/10 08:44:04;;;;;;;17.35;9.68;;;;;;;28.55;33.97;99416.66;1739884;81;21032;-69
2022/06/10 08:46:54;;;;;;;19.57;9.30;;;;;;;28.65;34.14;99418.21;1745710;80;21780;-71
2022/06/10 08:49:48;;;;;;;18.07;9.48;;;;;;;28.75;33.27;99412.05;1743271;80;21096;-70
2022/06/10 08:52:22;;;;;;;28.02;10.58;;;;;;;28.81;34.19;99420.20;1745857;81;21095;-68
2022/06/10 08:55:13;;;;;;;23.65;10.45;;;;;;;28.90;34.22;99425.22;1748207;80;21092;-67
2022/06/10 08:57:47;;;;;;;17.07;8.55;;;;;;;28.98;34.35;99413.06;1751827;80;21087;-66
2022/06/10 09:00:30;;;;;;;15.75;9.65;;;;;;;29.06;34.22;99413.63;1741707;80;21650;-68
2022/06/10 09:03:20;;;;;;;10.70;8.07;;;;;;;29.12;33.71;99421.77;1755133;80;21560;-68
2022/06/10 09:05:51;;;;;;;17.65;8.18;;;;;;;29.18;34.29;99424.81;1743897;80;21083;-67
2022/06/10 09:08:26;;;;;;;20.25;9.28;;;;;;;29.26;34.82;99412.80;1739711;81;21075;-69
2022/06/10 09:11:22;;;;;;;16.20;8.93;;;;;;;29.32;34.76;99422.17;1740945;81;21017;-67
2022/06/10 09:13:59;;;;;;;16.97;9.73;;;;;;;29.32;34.61;99418.72;1739086;81;21804;-68
2022/06/10 09:16:50;;;;;;;19.25;9.23;;;;;;;29.32;34.05;99413.66;1742368;81;21087;-69
2022/06/10 09:19:45;;;;;;;14.05;9.00;;;;;;;29.38;34.78;99413.25;1746189;81;21472;-67
2022/06/10 09:22:44;;;;;;;22.05;9.90;;;;;;;29.47;35.03;99419.05;1748539;80;21088;-68
2022/06/10 09:25:28;;;;;;;10.08;6.42;;;;;;;29.57;35.21;99421.37;1754404;80;21020;-66
2022/06/10 09:28:00;;;;;;;16.57;7.53;;;;;;;29.69;34.44;99423.26;1770951;80;21165;-67
2022/06/10 09:30:38;;;;;;;15.43;6.33;;;;;;;29.78;33.48;99420.53;1768529;80;21115;-67
2022/06/10 09:33:21;;;;;;;10.98;6.92;;;;;;;29.88;33.24;99420.00;1769169;80;21020;-68
2022/06/10 09:36:12;;;;;;;12.20;6.65;;;;;;;29.97;33.70;99424.38;1728020;80;21116;-67
2022/06/10 09:39:04;;;;;;;12.70;7.05;;;;;;;30.07;32.76;99422.41;1767009;80;21083;-68
2022/06/10 09:41:53;;;;;;;20.00;7.80;;;;;;;30.12;31.96;99422.45;1747518;80;21778;-68
2022/06/10 09:44:37;;;;;;;13.75;7.87;;;;;;;30.16;32.92;99417.45;1767286;80;21048;-67
2022/06/10 09:47:20;;;;;;;16.95;7.60;;;;;;;30.22;33.51;99426.19;1772337;80;21051;-69
2022/06/10 09:49:56;;;;;;;11.97;7.70;;;;;;;30.24;33.64;99427.95;1721088;80;21031;-68
2022/06/10 09:52:30;;;;;;;10.30;7.47;;;;;;;30.16;32.92;99426.59;1772860;80;21093;-67
2022/06/10 09:55:21;;;;;;;19.62;7.25;;;;;;;30.06;33.44;99423.64;1770664;80;21191;-69
2022/06/10 09:58:06;;;;;;;10.93;7.17;;;;;;;30.06;33.73;99425.06;1767259;80;21024;-69
2022/06/10 10:00:39;;;;;;;13.45;7.37;;;;;;;30.11;33.80;99430.16;1768379;80;21074;-68
2022/06/10 10:03:36;;;;;;;12.82;7.50;;;;;;;30.14;32.58;99429.89;1772286;80;21031;-69
2022/06/10 10:10:17;;;;;;;18.70;7.60;;;;;;;30.24;33.39;99427.95;1636973;86;21030;-66
2022/06/10 10:13:13;;;;;;;26.95;9.23;;;;;;;30.34;33.47;99431.05;1765277;80;21060;-67
2022/06/10 10:16:01;;;;;;;10.58;6.65;;;;;;;30.36;33.36;99432.00;1775041;80;21019;-67
2022/06/10 10:19:09;;;;;;;24.67;8.23;;;;;;;30.43;33.70;99436.64;1769718;80;21051;-63
2022/06/10 10:22:01;;;;;;;13.25;8.23;;;;;;;30.35;32.39;99431.20;1774912;80;21057;-65
2022/06/10 10:24:27;;;;;;;10.40;7.12;;;;;;;30.14;32.65;99432.73;1770563;80;21098;-62
2022/06/10 10:26:54;;;;;;;12.88;6.75;;;;;;;29.91;32.29;99441.02;1764828;80;21015;-63
2022/06/10 10:29:24;;;;;;;11.43;7.20;;;;;;;29.79;32.68;99431.27;1749189;80;21525;-65
2022/06/10 10:32:17;;;;;;;10.75;6.75;;;;;;;29.78;32.81;99435.34;1743969;80;22180;-63
2022/06/10 10:34:48;;;;;;;10.98;6.08;;;;;;;29.77;31.92;99431.70;1742979;81;21000;-65
2022/06/10 10:37:31;;;;;;;13.18;6.80;;;;;;;29.74;33.04;99434.84;1747024;81;21140;-64
2022/06/10 10:40:06;;;;;;;30.48;10.75;;;;;;;29.80;33.38;99435.08;1750782;81;21025;-62
2022/06/10 10:42:36;;;;;;;13.30;6.92;;;;;;;29.93;33.62;99431.40;1752445;79;21517;-66
2022/06/10 10:45:26;;;;;;;15.23;7.20;;;;;;;30.03;32.19;99428.83;1752512;80;21020;-68
2022/06/10 10:48:04;;;;;;;14.20;7.40;;;;;;;30.11;32.46;99435.07;1753978;81;21055;-62
2022/06/10 10:50:34;;;;;;;23.18;10.50;;;;;;;30.20;32.84;99437.18;1745893;81;21359;-63
2022/06/10 10:53:39;;;;;;;11.40;7.58;;;;;;;30.28;32.91;99430.67;1754675;81;21036;-61
2022/06/10 10:56:07;;;;;;;13.25;6.80;;;;;;;30.35;32.47;99430.43;1743640;81;21059;-63
2022/06/10 10:58:50;;;;;;;32.95;12.85;;;;;;;30.44;31.67;99428.27;1752982;81;21009;-64
2022/06/10 11:01:51;;;;;;;;;;;;;;;30.51;32.64;99426.59;1752821;81;21407;-67
2022/06/10 11:04:34;;;;;;;15.70;7.37;;;;;;;30.60;30.84;99427.30;1670812;82;21143;-64
2022/06/10 11:07:18;;;;;;;14.28;8.28;;;;;;;30.67;30.15;99418.52;1716949;82;21052;-64
2022/06/10 11:09:51;;;;;;;16.12;7.92;;;;;;;30.74;29.66;99423.14;1710015;83;20950;-61
2022/06/10 11:12:22;;;;;;;23.45;9.98;;;;;;;30.81;30.38;99417.20;1714974;83;21080;-65
2022/06/10 11:14:59;;;;;;;32.15;10.43;;;;;;;30.92;31.62;99414.58;1702683;82;21029;-63
2022/06/10 11:17:26;;;;;;;11.35;7.37;;;;;;;31.01;31.28;99418.12;1701209;82;21537;-65
2022/06/10 11:20:03;;;;;;;20.17;7.85;;;;;;;31.10;31.24;99424.64;1675463;84;21551;-64
2022/06/10 11:22:38;;;;;;;41.18;10.03;;;;;;;31.15;30.68;99416.13;1702274;83;21005;-66
2022/06/10 11:25:15;;;;;;;11.60;7.47;;;;;;;31.20;30.01;99416.17;1712455;83;22370;-64
2022/06/10 11:27:57;;;;;;;19.87;8.25;;;;;;;31.22;29.74;99409.36;1711947;83;21038;-64
2022/06/10 11:30:36;;;;;;;12.18;7.40;;;;;;;31.25;29.94;99397.08;1711098;83;21201;-65
2022/06/10 11:33:20;;;;;;;13.08;7.37;;;;;;;31.33;30.05;99402.63;1709795;83;21081;-66
2022/06/10 11:36:07;;;;;;;31.20;9.10;;;;;;;31.40;29.55;99403.62;1704313;82;21630;-65
2022/06/10 11:38:48;;;;;;;10.82;7.83;;;;;;;31.36;30.50;99400.89;1700371;83;21752;-64
2022/06/10 11:41:30;;;;;;;15.68;7.97;;;;;;;31.40;30.23;99396.52;1703424;83;21433;-65
2022/06/10 11:44:14;;;;;;;17.10;8.53;;;;;;;31.40;28.53;99389.41;1703569;83;21145;-63
2022/06/10 11:46:56;;;;;;;12.03;8.28;;;;;;;31.38;29.95;99388.42;1696720;83;21118;-66
2022/06/10 11:49:34;;;;;;;13.95;8.23;;;;;;;31.38;29.44;99394.11;1709214;83;21058;-64
2022/06/10 11:52:36;;;;;;;15.65;8.23;;;;;;;31.41;29.66;99392.40;1701817;83;21087;-65
2022/06/10 11:55:14;;;;;;;14.18;7.33;;;;;;;31.41;29.27;99390.98;1713823;83;21146;-65
2022/06/10 12:01:02;;;;;;;21.80;10.23;;;;;;;31.29;28.57;99388.40;1705074;82;21134;-65
2022/06/10 12:03:44;;;;;;;14.58;9.23;;;;;;;30.92;27.51;99389.80;1712876;83;21055;-65
2022/06/10 12:06:17;;;;;;;16.55;9.78;;;;;;;30.80;29.99;99384.33;1713875;83;21526;-61
2022/06/10 12:08:55;;;;;;;15.55;9.15;;;;;;;30.94;30.50;99387.28;1708892;82;21055;-64
2022/06/10 12:11:45;;;;;;;16.25;8.65;;;;;;;31.09;30.00;99391.78;1705883;82;21570;-65
2022/06/10 12:14:41;;;;;;;13.58;8.93;;;;;;;31.21;29.82;99387.25;1704748;83;21060;-62
2022/06/10 12:17:33;;;;;;;17.52;9.85;;;;;;;31.28;28.47;99386.80;1682377;83;21088;-64
2022/06/10 12:20:47;;;;;;;15.50;9.83;;;;;;;31.24;27.85;99384.09;1711696;83;21058;-63
2022/06/10 12:23:24;;;;;;;20.62;9.03;;;;;;;31.27;28.43;99373.20;1710544;82;21096;-62
2022/06/10 12:26:16;;;;;;;13.90;9.38;;;;;;;31.39;28.48;99372.92;1698222;83;22118;-66
2022/06/10 12:28:51;;;;;;;21.00;10.43;;;;;;;31.50;28.15;99371.72;1708659;83;21534;-63